Terminal Aerodrome Forecast
Issued by NWS

Home | Current Version | Previous Version | Text Only | Print | Product List | Glossary On
Versions: 1 2 3 4 5 6 7 8 9 10 11 12 13 14
000
FTUS43 KGRR 051127
TAFMKG
TAF
KMKG 051127Z 0512/0612 00000KT 3SM BR SKC
     FM051300 18005KT 6SM BR SKC
     FM051600 20010KT P6SM SKC
     FM052200 22012KT P6SM SKC
     FM060300 16004KT P6SM SKC=

USA.gov is the U.S. government's official web portal to all federal, state and local government web resources and services.